Skip Navigation Links Skip Navigation Links

Current Weather

Agadir Al Massira, Morocco

For information only: do not use for flight planning or navigation.
Latest weather
Observation time Sunday, December 17, 2017 11:00 PM WET
Local time Sunday, December 17, 2017 11:11 PM WET
Flight conditions Visual Meteorological Conditions
Winds
Wind direction East-Northeast (70°)
Wind speed 6 mph
Visibility 6.2 mi.
Sky condition
Ceiling unlimited
Sky clear
Temperature 54°F
Dewpoint 50°F
Altimeter 30.18 in.Hg
Derived measurements
Relative humidity 88%
Density altitude -236 ft.
Remarks
Ceiling and visibility OK.
No significant changes expected in the next two hours.
METAR GMAD 172300Z 07005KT CAVOK 12/10 Q1022 NOSIG

Settings

Location code

InnerDrive.Weather 4.0.6144.1 Release CLR 4.0.30319.36366
Copyright ©2015 Inner Drive Technology. All rights reserved. Portions Copyright ©1986-2015 David Braverman.

Find weather

Site navigation


Skip Navigation Links

Place info

Page info

PayPal - The safer, easier way to pay online!

Return home.

Copyright ©2017 Inner Drive Technology. Purveyors of fine, hand-crafted computer software. Page printed 2017-12-17T23:11:59 UTC.